createdAt,value
2023-02-09T00:01:30.167Z,21.77
2023-02-09T00:04:00.065Z,19.97
2023-02-09T00:06:30.051Z,20.30
2023-02-09T00:08:58.134Z,20.47
2023-02-09T00:11:46.226Z,20.47
2023-02-09T00:14:14.760Z,19.57
2023-02-09T00:16:41.903Z,19.27
2023-02-09T00:19:08.755Z,21.97
2023-02-09T00:21:35.560Z,21.63
2023-02-09T00:24:02.488Z,19.97
2023-02-09T00:26:29.328Z,21.50
2023-02-09T00:28:56.108Z,21.73
2023-02-09T00:31:23.094Z,20.17
2023-02-09T00:33:49.952Z,19.50
2023-02-09T00:36:16.886Z,21.87
2023-02-09T00:38:44.322Z,20.87
2023-02-09T00:41:12.193Z,20.87
2023-02-09T00:43:39.292Z,20.93
2023-02-09T00:46:06.387Z,20.77
2023-02-09T00:48:33.467Z,22.27
2023-02-09T00:51:00.971Z,22.20
2023-02-09T00:53:28.137Z,21.17
2023-02-09T00:55:54.938Z,21.17
2023-02-09T00:58:21.782Z,21.13
2023-02-09T01:00:49.764Z,21.20
2023-02-09T01:03:18.207Z,19.47
2023-02-09T01:05:44.950Z,23.33
2023-02-09T01:08:11.993Z,20.93
2023-02-09T01:10:39.116Z,21.33
2023-02-09T01:13:06.034Z,20.47
2023-02-09T01:15:33.068Z,21.53
2023-02-09T01:18:00.023Z,22.23
2023-02-09T01:20:28.254Z,19.80
2023-02-09T01:22:55.177Z,22.03
2023-02-09T01:25:21.950Z,20.70
2023-02-09T01:27:48.867Z,21.27
2023-02-09T01:30:16.328Z,21.53
2023-02-09T01:32:43.292Z,20.87
2023-02-09T01:35:10.930Z,21.60
2023-02-09T01:37:37.801Z,22.43
2023-02-09T01:40:05.220Z,22.47
2023-02-09T01:42:32.281Z,21.37
2023-02-09T01:45:06.122Z,21.07
2023-02-09T01:47:37.038Z,23.13
2023-02-09T01:50:04.085Z,25.27
2023-02-09T01:52:31.383Z,23.60
2023-02-09T01:55:10.745Z,24.27
2023-02-09T01:57:42.917Z,23.27
2023-02-09T02:00:18.083Z,24.40
2023-02-09T02:02:57.668Z,22.97
2023-02-09T02:05:26.323Z,22.73
2023-02-09T02:08:02.774Z,23.90
2023-02-09T02:10:30.659Z,23.93
2023-02-09T02:12:59.537Z,22.67
2023-02-09T02:15:31.083Z,23.57
2023-02-09T02:18:10.916Z,23.67
2023-02-09T02:20:58.748Z,23.83
2023-02-09T02:23:41.044Z,23.00
2023-02-09T02:26:38.861Z,21.60
2023-02-09T02:29:43.398Z,21.47
2023-02-09T02:32:17.935Z,20.67
2023-02-09T02:34:58.091Z,22.97
2023-02-09T02:37:32.878Z,22.10
2023-02-09T02:40:23.891Z,22.03
2023-02-09T02:43:09.444Z,24.30
2023-02-09T02:45:44.052Z,21.57
2023-02-09T02:48:19.080Z,22.53
2023-02-09T02:50:59.615Z,20.67
2023-02-09T02:53:30.113Z,22.60
2023-02-09T02:56:03.152Z,20.87
2023-02-09T02:58:31.094Z,23.10
2023-02-09T03:01:03.933Z,20.97
2023-02-09T03:03:34.178Z,21.20
2023-02-09T03:06:04.851Z,21.53
2023-02-09T03:08:55.798Z,22.67
2023-02-09T03:11:26.707Z,20.67
2023-02-09T03:14:06.170Z,19.97
2023-02-09T03:17:28.354Z,22.80
2023-02-09T03:20:08.303Z,20.13
2023-02-09T03:22:45.481Z,23.07
2023-02-09T03:25:23.814Z,22.20
2023-02-09T03:28:10.041Z,21.57
2023-02-09T03:30:40.942Z,22.13
2023-02-09T03:33:22.539Z,21.97
2023-02-09T03:35:52.130Z,22.03
2023-02-09T03:38:19.083Z,23.03
2023-02-09T03:40:46.045Z,23.00
2023-02-09T03:43:13.223Z,21.07
2023-02-09T03:45:40.132Z,20.73
2023-02-09T03:48:07.441Z,20.47
2023-02-09T03:50:35.728Z,19.17
2023-02-09T03:53:06.534Z,19.40
2023-02-09T03:55:35.875Z,20.13
2023-02-09T03:58:02.682Z,18.90
2023-02-09T04:00:29.516Z,19.40
2023-02-09T04:02:56.738Z,18.40
2023-02-09T04:05:24.652Z,17.93
2023-02-09T04:07:51.486Z,19.97
2023-02-09T04:10:19.011Z,18.67
2023-02-09T04:12:46.062Z,16.73
2023-02-09T04:15:12.874Z,17.33
2023-02-09T04:17:39.787Z,17.87
2023-02-09T04:20:07.299Z,18.37
2023-02-09T04:22:34.136Z,16.43
2023-02-09T04:25:00.940Z,16.60
2023-02-09T04:27:28.418Z,17.73
2023-02-09T04:29:55.200Z,17.30
2023-02-09T04:32:22.011Z,18.00
2023-02-09T04:34:49.914Z,19.17
2023-02-09T04:37:16.762Z,19.13
2023-02-09T04:39:43.562Z,18.70
2023-02-09T04:42:10.327Z,17.83
2023-02-09T04:44:37.148Z,17.07
2023-02-09T04:47:03.965Z,18.50
2023-02-09T04:49:30.812Z,15.60
2023-02-09T04:51:57.603Z,17.00
2023-02-09T04:54:24.292Z,15.30
2023-02-09T04:57:11.032Z,15.17
2023-02-09T04:59:40.933Z,16.93
2023-02-09T05:02:08.250Z,16.37
2023-02-09T05:04:35.047Z,16.03
2023-02-09T05:07:02.254Z,15.50
2023-02-09T05:09:29.227Z,16.57
2023-02-09T05:11:56.100Z,15.43
2023-02-09T05:14:22.811Z,15.83
2023-02-09T05:16:49.897Z,16.00
2023-02-09T05:19:16.775Z,16.00
2023-02-09T05:21:43.556Z,16.47
2023-02-09T05:24:10.301Z,14.77
2023-02-09T05:26:39.152Z,16.30
2023-02-09T05:29:05.908Z,17.00
2023-02-09T05:31:37.521Z,15.40
2023-02-09T05:34:04.349Z,16.07
2023-02-09T05:36:31.087Z,14.67
2023-02-09T05:38:57.861Z,15.37
2023-02-09T05:41:44.165Z,15.60
2023-02-09T05:44:10.929Z,15.70
2023-02-09T05:46:39.379Z,15.00
2023-02-09T05:49:06.116Z,15.57
2023-02-09T05:51:33.861Z,16.50
2023-02-09T05:54:00.821Z,16.60
2023-02-09T05:56:27.656Z,16.60
2023-02-09T05:58:54.885Z,15.40
2023-02-09T06:01:21.891Z,17.10
2023-02-09T06:03:48.677Z,16.67
2023-02-09T06:06:15.430Z,17.17
2023-02-09T06:08:42.244Z,17.90
2023-02-09T06:11:08.974Z,16.40
2023-02-09T06:13:35.974Z,17.27
2023-02-09T06:16:02.801Z,18.53
2023-02-09T06:18:29.640Z,17.80
2023-02-09T06:20:56.466Z,16.43
2023-02-09T06:23:23.242Z,17.23
2023-02-09T06:25:53.100Z,16.63
2023-02-09T06:28:20.873Z,17.17
2023-02-09T06:30:51.479Z,19.07
2023-02-09T06:33:19.959Z,18.53
2023-02-09T06:35:46.898Z,17.83
2023-02-09T06:38:13.718Z,17.27
2023-02-09T06:40:40.467Z,17.83
2023-02-09T06:43:07.256Z,16.80
2023-02-09T06:45:34.083Z,17.43
2023-02-09T06:48:00.809Z,17.70
2023-02-09T06:50:28.068Z,17.47
2023-02-09T06:52:56.886Z,17.93
2023-02-09T06:55:23.732Z,16.30
2023-02-09T06:57:51.176Z,18.90
2023-02-09T07:00:18.401Z,18.07
2023-02-09T07:02:46.149Z,16.80
2023-02-09T07:05:14.750Z,16.67
2023-02-09T07:07:42.525Z,18.20
2023-02-09T07:10:10.571Z,20.03
2023-02-09T07:12:38.437Z,17.73
2023-02-09T07:15:08.144Z,19.37
2023-02-09T07:17:34.974Z,19.07
2023-02-09T07:20:03.875Z,18.97
2023-02-09T07:22:30.955Z,18.63
2023-02-09T07:24:58.021Z,18.17
2023-02-09T07:27:25.749Z,19.03
2023-02-09T07:29:52.555Z,18.87
2023-02-09T07:32:19.423Z,19.00
2023-02-09T07:34:46.547Z,18.87
2023-02-09T07:37:13.917Z,19.57
2023-02-09T07:39:43.379Z,19.17
2023-02-09T07:42:10.307Z,18.30
2023-02-09T07:44:37.024Z,16.83
2023-02-09T07:47:03.981Z,18.97
2023-02-09T07:49:30.746Z,17.13
2023-02-09T07:51:59.820Z,20.27
2023-02-09T07:54:26.891Z,18.23
2023-02-09T07:56:56.801Z,19.00
2023-02-09T07:59:23.744Z,19.20
2023-02-09T08:01:51.548Z,17.77
2023-02-09T08:04:18.454Z,17.40
2023-02-09T08:06:46.394Z,16.17
2023-02-09T08:09:15.194Z,16.83
2023-02-09T08:11:58.653Z,18.13
2023-02-09T08:14:39.645Z,17.87
2023-02-09T08:17:27.912Z,16.87
2023-02-09T08:20:03.805Z,16.53
2023-02-09T08:22:35.162Z,16.63
2023-02-09T08:25:03.729Z,18.30
2023-02-09T08:27:32.021Z,16.90
2023-02-09T08:30:00.384Z,16.90
2023-02-09T08:32:28.289Z,18.40
2023-02-09T08:34:55.026Z,16.03
2023-02-09T08:37:21.746Z,15.97
2023-02-09T08:39:52.814Z,17.57
2023-02-09T08:42:19.610Z,15.90
2023-02-09T08:44:46.789Z,14.63
2023-02-09T08:47:13.614Z,16.13
2023-02-09T08:49:41.622Z,15.40
2023-02-09T08:52:08.395Z,16.77
2023-02-09T08:54:35.999Z,15.57
2023-02-09T08:57:02.787Z,14.93
2023-02-09T08:59:29.653Z,13.23
2023-02-09T09:02:09.230Z,16.23
2023-02-09T09:04:46.212Z,16.33
2023-02-09T09:07:13.231Z,14.83
2023-02-09T09:09:40.263Z,14.63
2023-02-09T09:12:07.357Z,13.73
2023-02-09T09:14:35.276Z,15.07
2023-02-09T09:17:02.068Z,14.87
2023-02-09T09:19:29.265Z,14.33
2023-02-09T09:21:58.649Z,14.97
2023-02-09T09:24:29.264Z,15.13
2023-02-09T09:26:56.693Z,14.97
2023-02-09T09:29:23.754Z,14.57
2023-02-09T09:31:50.665Z,13.83
2023-02-09T09:34:17.467Z,14.53
2023-02-09T09:36:44.187Z,15.13
2023-02-09T09:39:10.978Z,14.50
2023-02-09T09:41:38.595Z,14.47
2023-02-09T09:44:15.475Z,15.30
2023-02-09T09:46:46.030Z,15.00
2023-02-09T09:49:26.310Z,12.80
2023-02-09T09:52:05.944Z,15.30
2023-02-09T09:54:35.881Z,13.10
2023-02-09T09:57:03.409Z,13.73
2023-02-09T09:59:38.812Z,13.87
2023-02-09T10:02:32.757Z,12.93
2023-02-09T10:05:22.662Z,12.40
2023-02-09T10:08:08.658Z,11.70
2023-02-09T10:10:46.016Z,10.67
2023-02-09T10:13:36.338Z,10.30
2023-02-09T10:16:04.918Z,10.60
2023-02-09T10:18:36.214Z,9.67
2023-02-09T10:21:08.835Z,9.73
2023-02-09T10:23:47.532Z,8.97
2023-02-09T10:26:42.899Z,5.90
2023-02-09T10:29:12.748Z,7.27
2023-02-09T10:31:43.367Z,5.73
2023-02-09T10:34:31.400Z,5.63
2023-02-09T10:37:18.660Z,4.70
2023-02-09T10:39:52.940Z,4.47
2023-02-09T10:42:24.269Z,3.70
2023-02-09T10:44:54.783Z,3.60
2023-02-09T10:47:23.670Z,3.60
2023-02-09T10:50:00.988Z,4.00
2023-02-09T10:52:35.773Z,3.90
2023-02-09T10:55:14.781Z,3.10
2023-02-09T10:57:42.101Z,4.00
2023-02-09T11:00:19.403Z,3.10
2023-02-09T11:02:52.233Z,2.70
2023-02-09T11:05:21.993Z,3.73
2023-02-09T11:08:03.733Z,3.17
2023-02-09T11:10:35.379Z,3.90
2023-02-09T11:13:02.899Z,2.50
2023-02-09T11:15:40.533Z,2.40
2023-02-09T11:18:17.073Z,2.70
2023-02-09T11:21:03.382Z,3.50
2023-02-09T11:23:54.242Z,2.57
2023-02-09T11:26:51.487Z,3.43
2023-02-09T11:29:35.711Z,2.40
2023-02-09T11:32:16.971Z,2.43
2023-02-09T11:34:55.183Z,2.30
2023-02-09T11:37:21.906Z,3.07
2023-02-09T11:40:01.839Z,2.10
2023-02-09T11:42:46.794Z,2.90
2023-02-09T11:45:44.534Z,2.70
2023-02-09T11:48:14.386Z,2.73
2023-02-09T11:51:01.965Z,2.33
2023-02-09T11:53:50.000Z,3.30
2023-02-09T11:56:20.270Z,2.60
2023-02-09T11:58:51.551Z,2.57
2023-02-09T12:01:49.077Z,2.17
2023-02-09T12:04:24.818Z,2.50
2023-02-09T12:06:56.023Z,3.67
2023-02-09T12:09:31.753Z,2.63
2023-02-09T12:12:08.076Z,2.50
2023-02-09T12:14:53.892Z,2.60
2023-02-09T12:17:46.482Z,2.77
2023-02-09T12:20:25.465Z,3.33
2023-02-09T12:23:18.014Z,1.90
2023-02-09T12:25:51.780Z,2.30
2023-02-09T12:28:27.501Z,1.87
2023-02-09T12:30:54.832Z,2.50
2023-02-09T12:33:24.553Z,2.23
2023-02-09T12:36:09.828Z,2.70
2023-02-09T12:39:04.644Z,2.70
2023-02-09T12:41:34.739Z,2.67
2023-02-09T12:44:10.687Z,1.90
2023-02-09T12:46:57.837Z,2.43
2023-02-09T12:49:27.449Z,2.53
2023-02-09T12:52:12.800Z,3.33
2023-02-09T12:54:41.980Z,2.80
2023-02-09T12:57:15.081Z,2.60
2023-02-09T12:59:55.279Z,2.70
2023-02-09T13:02:48.336Z,3.63
2023-02-09T13:05:39.728Z,2.50
2023-02-09T13:08:18.475Z,2.47
2023-02-09T13:11:11.243Z,2.53
2023-02-09T13:13:44.273Z,2.63
2023-02-09T13:16:29.763Z,2.47
2023-02-09T13:19:11.970Z,2.80
2023-02-09T13:21:53.535Z,3.07
2023-02-09T13:24:34.052Z,2.67
2023-02-09T13:27:01.276Z,2.97
2023-02-09T13:29:30.434Z,3.30
2023-02-09T13:32:15.724Z,2.27
2023-02-09T13:35:04.575Z,2.43
2023-02-09T13:37:54.341Z,2.83
2023-02-09T13:40:31.574Z,3.13
2023-02-09T13:43:07.084Z,2.77
2023-02-09T13:45:33.890Z,2.27
2023-02-09T13:48:02.767Z,2.87
2023-02-09T13:50:30.284Z,2.87
2023-02-09T13:53:10.390Z,2.43
2023-02-09T13:55:39.973Z,2.70
2023-02-09T13:58:14.308Z,2.47
2023-02-09T14:00:44.642Z,2.30
2023-02-09T14:03:57.539Z,2.13
2023-02-09T14:06:25.112Z,2.47
2023-02-09T14:08:53.467Z,2.43
2023-02-09T14:11:43.001Z,2.37
2023-02-09T14:14:22.211Z,3.03
2023-02-09T14:17:22.972Z,2.20
2023-02-09T14:19:52.379Z,2.27
2023-02-09T14:22:40.018Z,2.33
2023-02-09T14:25:28.768Z,3.13
2023-02-09T14:27:56.581Z,2.00
2023-02-09T14:30:32.046Z,2.43
2023-02-09T14:33:03.578Z,3.13
2023-02-09T14:35:38.814Z,2.50
2023-02-09T14:38:06.039Z,2.30
2023-02-09T14:40:37.187Z,2.27
2023-02-09T14:43:13.643Z,2.53
2023-02-09T14:45:46.880Z,2.37
2023-02-09T14:48:21.721Z,2.43
2023-02-09T14:50:50.798Z,2.20
2023-02-09T14:53:18.763Z,2.90
2023-02-09T14:55:45.963Z,2.33
2023-02-09T14:58:23.477Z,2.40
2023-02-09T15:00:51.791Z,3.13
2023-02-09T15:03:19.231Z,3.23
2023-02-09T15:05:48.816Z,2.40
2023-02-09T15:08:20.001Z,2.47
2023-02-09T15:11:03.053Z,2.83
2023-02-09T15:13:31.257Z,2.47
2023-02-09T15:15:58.544Z,2.93
2023-02-09T15:18:26.960Z,2.30
2023-02-09T15:20:54.012Z,2.47
2023-02-09T15:23:20.830Z,2.93
2023-02-09T15:25:48.306Z,2.80
2023-02-09T15:28:28.114Z,3.47
2023-02-09T15:30:56.901Z,3.20
2023-02-09T15:33:25.872Z,3.13
2023-02-09T15:35:53.132Z,3.50
2023-02-09T15:38:20.563Z,3.17
2023-02-09T15:41:07.916Z,2.77
2023-02-09T15:43:53.871Z,2.43
2023-02-09T15:46:40.365Z,3.27
2023-02-09T15:49:07.616Z,2.70
2023-02-09T15:51:37.061Z,2.47
2023-02-09T15:54:09.198Z,2.83
2023-02-09T15:56:36.764Z,2.80
2023-02-09T15:59:05.492Z,3.13
2023-02-09T16:01:35.874Z,2.97
2023-02-09T16:04:13.743Z,3.37
2023-02-09T16:06:48.499Z,2.57
2023-02-09T16:09:19.404Z,2.93
2023-02-09T16:11:48.279Z,2.63
2023-02-09T16:14:22.159Z,2.10
2023-02-09T16:16:50.038Z,2.97
2023-02-09T16:19:17.683Z,2.97
2023-02-09T16:21:49.902Z,4.67
2023-02-09T16:24:28.679Z,3.10
2023-02-09T16:26:55.880Z,2.70
2023-02-09T16:29:25.845Z,3.03
2023-02-09T16:31:55.736Z,3.47
2023-02-09T16:34:22.648Z,2.80
2023-02-09T16:36:50.019Z,3.13
2023-02-09T16:39:21.676Z,3.17
2023-02-09T16:41:50.829Z,2.90
2023-02-09T16:44:23.275Z,3.10
2023-02-09T16:46:57.889Z,2.30
2023-02-09T16:49:39.560Z,2.80
2023-02-09T16:52:20.460Z,2.73
2023-02-09T16:54:50.189Z,2.67
2023-02-09T16:57:18.998Z,2.90
2023-02-09T16:59:46.197Z,3.17
2023-02-09T17:02:37.769Z,3.00
2023-02-09T17:05:29.308Z,3.70
2023-02-09T17:08:20.141Z,4.20
2023-02-09T17:10:48.994Z,4.33
2023-02-09T17:13:22.031Z,3.37
2023-02-09T17:16:01.312Z,3.53
2023-02-09T17:18:34.873Z,3.23
2023-02-09T17:21:09.869Z,4.00
2023-02-09T17:23:37.052Z,3.30
2023-02-09T17:26:04.343Z,3.10
2023-02-09T17:28:31.428Z,3.93
2023-02-09T17:31:01.210Z,3.93
2023-02-09T17:33:36.184Z,3.63
2023-02-09T17:36:25.087Z,3.20
2023-02-09T17:38:51.461Z,3.40
2023-02-09T17:41:33.651Z,3.17
2023-02-09T17:44:22.247Z,4.17
2023-02-09T17:46:53.921Z,3.33
2023-02-09T17:49:20.748Z,3.53
2023-02-09T17:51:49.018Z,3.20
2023-02-09T17:54:19.643Z,3.30
2023-02-09T17:56:46.821Z,3.70
2023-02-09T17:59:14.836Z,4.13
2023-02-09T18:01:46.855Z,5.20
2023-02-09T18:04:19.385Z,3.60
2023-02-09T18:06:46.242Z,4.37
2023-02-09T18:09:16.434Z,5.40
2023-02-09T18:11:52.380Z,5.27
2023-02-09T18:14:21.242Z,5.00
2023-02-09T18:16:49.117Z,4.07
2023-02-09T18:19:16.911Z,4.90
2023-02-09T18:21:51.121Z,5.20
2023-02-09T18:24:21.266Z,4.60
2023-02-09T18:26:49.907Z,4.33
2023-02-09T18:29:17.889Z,4.70
2023-02-09T18:31:44.721Z,4.13
2023-02-09T18:34:11.478Z,4.70
2023-02-09T18:36:38.351Z,4.67
2023-02-09T18:39:05.617Z,4.10
2023-02-09T18:41:32.592Z,3.63
2023-02-09T18:43:59.390Z,3.90
2023-02-09T18:46:27.090Z,4.00
2023-02-09T18:48:54.731Z,4.67
2023-02-09T18:51:22.142Z,5.87
2023-02-09T18:53:52.057Z,5.90
2023-02-09T18:56:20.926Z,4.37
2023-02-09T18:58:51.277Z,3.53
2023-02-09T19:01:22.015Z,4.43
2023-02-09T19:03:50.455Z,4.40
2023-02-09T19:06:17.771Z,3.83
2023-02-09T19:08:44.651Z,3.53
2023-02-09T19:11:16.794Z,3.40
2023-02-09T19:14:03.934Z,3.77
2023-02-09T19:16:33.234Z,3.67
2023-02-09T19:19:00.820Z,4.63
2023-02-09T19:21:28.738Z,6.30
2023-02-09T19:23:55.752Z,5.70
2023-02-09T19:26:22.959Z,5.73
2023-02-09T19:28:50.787Z,5.13
2023-02-09T19:31:18.500Z,3.70
2023-02-09T19:33:45.348Z,3.90
2023-02-09T19:36:13.319Z,3.97
2023-02-09T19:38:40.136Z,4.57
2023-02-09T19:41:11.855Z,5.07
2023-02-09T19:43:39.590Z,6.00
2023-02-09T19:46:07.276Z,4.43
2023-02-09T19:48:34.106Z,4.30
2023-02-09T19:51:02.075Z,4.73
2023-02-09T19:53:28.927Z,4.73
2023-02-09T19:55:56.464Z,5.73
2023-02-09T19:58:23.629Z,5.27
2023-02-09T20:00:51.676Z,3.90
2023-02-09T20:03:18.995Z,3.47
2023-02-09T20:05:46.551Z,4.07
2023-02-09T20:08:17.237Z,3.67
2023-02-09T20:10:44.518Z,4.20
2023-02-09T20:13:13.440Z,3.90
2023-02-09T20:15:43.586Z,3.73
2023-02-09T20:18:12.173Z,4.37
2023-02-09T20:20:41.703Z,4.73
2023-02-09T20:23:09.486Z,4.60
2023-02-09T20:25:38.682Z,4.83
2023-02-09T20:28:05.556Z,6.17
2023-02-09T20:30:32.406Z,5.90
2023-02-09T20:32:59.173Z,4.83
2023-02-09T20:35:27.042Z,5.07
2023-02-09T20:37:56.731Z,5.97
2023-02-09T20:40:24.293Z,5.27
2023-02-09T20:43:09.567Z,4.93
2023-02-09T20:45:54.928Z,5.17
2023-02-09T20:48:21.798Z,4.67
2023-02-09T20:50:49.004Z,6.40
2023-02-09T20:53:17.610Z,6.07
2023-02-09T20:55:44.507Z,5.37
2023-02-09T20:58:13.662Z,4.83
2023-02-09T21:00:42.594Z,5.70
2023-02-09T21:03:11.100Z,6.17
2023-02-09T21:05:39.210Z,6.93
2023-02-09T21:08:09.004Z,5.53
2023-02-09T21:10:38.377Z,5.67
2023-02-09T21:13:06.789Z,6.50
2023-02-09T21:15:36.040Z,6.57
2023-02-09T21:18:03.017Z,6.20
2023-02-09T21:20:32.188Z,5.10
2023-02-09T21:23:00.584Z,6.70
2023-02-09T21:25:27.786Z,5.73
2023-02-09T21:27:59.262Z,6.57
2023-02-09T21:30:28.484Z,6.97
2023-02-09T21:32:56.143Z,5.93
2023-02-09T21:35:23.329Z,6.50
2023-02-09T21:37:50.172Z,6.97
2023-02-09T21:40:17.173Z,9.33
2023-02-09T21:42:45.377Z,7.13
2023-02-09T21:45:13.175Z,6.53
2023-02-09T21:47:40.391Z,7.00
2023-02-09T21:50:10.722Z,7.17
2023-02-09T21:52:38.829Z,8.10
2023-02-09T21:55:05.986Z,8.33
2023-02-09T21:57:32.770Z,8.40
2023-02-09T22:00:04.485Z,8.50
2023-02-09T22:02:33.691Z,9.20
2023-02-09T22:05:00.559Z,7.43
2023-02-09T22:07:27.916Z,8.10
2023-02-09T22:09:54.773Z,8.10
2023-02-09T22:12:21.793Z,7.60
2023-02-09T22:14:48.749Z,7.50
2023-02-09T22:17:17.057Z,7.00
2023-02-09T22:19:43.969Z,7.90
2023-02-09T22:22:11.334Z,7.30
2023-02-09T22:24:38.608Z,6.67
2023-02-09T22:27:08.406Z,7.13
2023-02-09T22:29:35.714Z,6.80
2023-02-09T22:32:02.681Z,6.97
2023-02-09T22:34:29.645Z,6.50
2023-02-09T22:36:57.525Z,6.67
2023-02-09T22:39:24.322Z,7.53
2023-02-09T22:41:51.198Z,8.00
2023-02-09T22:44:20.710Z,7.80
2023-02-09T22:46:47.543Z,8.20
2023-02-09T22:49:19.924Z,8.67
2023-02-09T22:51:48.707Z,8.67
2023-02-09T22:54:17.211Z,7.57
2023-02-09T22:56:45.748Z,9.33
2023-02-09T22:59:14.090Z,8.17
2023-02-09T23:01:41.213Z,8.60
2023-02-09T23:04:09.965Z,6.60
2023-02-09T23:06:36.977Z,6.33
2023-02-09T23:09:08.247Z,6.47
2023-02-09T23:11:35.810Z,5.47
2023-02-09T23:14:11.139Z,7.93
2023-02-09T23:16:41.891Z,6.77
2023-02-09T23:19:14.195Z,7.07
2023-02-09T23:21:43.762Z,5.67
2023-02-09T23:24:12.020Z,5.70
2023-02-09T23:26:39.702Z,6.97
2023-02-09T23:29:09.407Z,6.67
2023-02-09T23:31:38.210Z,5.67
2023-02-09T23:34:04.975Z,6.40
2023-02-09T23:36:33.691Z,6.60
2023-02-09T23:39:03.434Z,6.33
2023-02-09T23:41:30.321Z,8.30
2023-02-09T23:43:57.397Z,7.77
2023-02-09T23:46:28.416Z,7.37
2023-02-09T23:48:56.412Z,6.83
2023-02-09T23:51:26.956Z,7.57
2023-02-09T23:53:55.410Z,6.33
2023-02-09T23:56:22.921Z,6.60
2023-02-09T23:58:52.270Z,7.03
